sensor_id;sensor_type;location;lat;lon;timestamp;temperature;humidity
40670;DHT22;26355;45.528;9.234;2022-11-15T00:00:48;12.10;99.90
40670;DHT22;26355;45.528;9.234;2022-11-15T00:03:15;12.00;99.90
40670;DHT22;26355;45.528;9.234;2022-11-15T00:05:41;12.10;99.90
40670;DHT22;26355;45.528;9.234;2022-11-15T00:08:08;12.00;99.90
40670;DHT22;26355;45.528;9.234;2022-11-15T00:10:33;12.00;99.90
40670;DHT22;26355;45.528;9.234;2022-11-15T00:12:59;12.10;99.90
40670;DHT22;26355;45.528;9.234;2022-11-15T00:15:25;12.00;99.90
40670;DHT22;26355;45.528;9.234;2022-11-15T00:17:54;12.10;99.90
40670;DHT22;26355;45.528;9.234;2022-11-15T00:20:19;12.00;99.90
40670;DHT22;26355;45.528;9.234;2022-11-15T00:22:45;12.00;99.90
40670;DHT22;26355;45.528;9.234;2022-11-15T00:25:11;12.00;99.90
40670;DHT22;26355;45.528;9.234;2022-11-15T00:27:36;12.00;99.90
40670;DHT22;26355;45.528;9.234;2022-11-15T00:30:02;12.00;99.90
40670;DHT22;26355;45.528;9.234;2022-11-15T00:32:31;12.00;99.90
40670;DHT22;26355;45.528;9.234;2022-11-15T00:34:57;11.90;99.90
40670;DHT22;26355;45.528;9.234;2022-11-15T00:37:23;11.90;99.90
40670;DHT22;26355;45.528;9.234;2022-11-15T00:39:48;12.30;99.90
40670;DHT22;26355;45.528;9.234;2022-11-15T00:42:14;11.90;99.90
40670;DHT22;26355;45.528;9.234;2022-11-15T00:44:40;11.90;99.90
40670;DHT22;26355;45.528;9.234;2022-11-15T00:47:05;11.90;99.90
40670;DHT22;26355;45.528;9.234;2022-11-15T00:49:31;11.90;99.90
40670;DHT22;26355;45.528;9.234;2022-11-15T00:51:57;11.80;99.90
40670;DHT22;26355;45.528;9.234;2022-11-15T00:54:22;11.80;99.90
40670;DHT22;26355;45.528;9.234;2022-11-15T00:56:48;11.80;99.90
40670;DHT22;26355;45.528;9.234;2022-11-15T00:59:13;11.80;99.90
40670;DHT22;26355;45.528;9.234;2022-11-15T01:01:39;11.80;99.90
40670;DHT22;26355;45.528;9.234;2022-11-15T01:04:05;12.00;99.90
40670;DHT22;26355;45.528;9.234;2022-11-15T01:06:31;11.80;99.90
40670;DHT22;26355;45.528;9.234;2022-11-15T01:08:57;11.80;99.90
40670;DHT22;26355;45.528;9.234;2022-11-15T01:11:22;11.70;99.90
40670;DHT22;26355;45.528;9.234;2022-11-15T01:13:48;11.60;99.90
40670;DHT22;26355;45.528;9.234;2022-11-15T01:16:16;11.50;99.90
40670;DHT22;26355;45.528;9.234;2022-11-15T01:18:43;11.50;99.90
40670;DHT22;26355;45.528;9.234;2022-11-15T01:21:12;11.60;99.90
40670;DHT22;26355;45.528;9.234;2022-11-15T01:23:38;11.60;99.90
40670;DHT22;26355;45.528;9.234;2022-11-15T01:26:06;11.50;99.90
40670;DHT22;26355;45.528;9.234;2022-11-15T01:28:33;11.60;99.90
40670;DHT22;26355;45.528;9.234;2022-11-15T01:31:01;11.60;99.90
40670;DHT22;26355;45.528;9.234;2022-11-15T01:33:28;11.70;99.90
40670;DHT22;26355;45.528;9.234;2022-11-15T01:35:54;11.50;99.90
40670;DHT22;26355;45.528;9.234;2022-11-15T01:38:20;11.50;99.90
40670;DHT22;26355;45.528;9.234;2022-11-15T01:40:46;11.50;99.90
40670;DHT22;26355;45.528;9.234;2022-11-15T01:43:38;11.50;99.90
40670;DHT22;26355;45.528;9.234;2022-11-15T01:48:38;11.50;99.90
40670;DHT22;26355;45.528;9.234;2022-11-15T01:51:09;11.50;99.90
40670;DHT22;26355;45.528;9.234;2022-11-15T01:53:38;11.40;99.90
40670;DHT22;26355;45.528;9.234;2022-11-15T01:56:09;11.40;99.90
40670;DHT22;26355;45.528;9.234;2022-11-15T01:58:36;11.40;99.90
40670;DHT22;26355;45.528;9.234;2022-11-15T02:01:02;11.40;99.90
40670;DHT22;26355;45.528;9.234;2022-11-15T02:03:36;11.40;99.90
40670;DHT22;26355;45.528;9.234;2022-11-15T02:06:05;11.40;99.90
40670;DHT22;26355;45.528;9.234;2022-11-15T02:08:31;11.40;99.90
40670;DHT22;26355;45.528;9.234;2022-11-15T02:10:56;11.30;99.90
40670;DHT22;26355;45.528;9.234;2022-11-15T02:13:22;11.30;99.90
40670;DHT22;26355;45.528;9.234;2022-11-15T02:18:37;11.30;99.90
40670;DHT22;26355;45.528;9.234;2022-11-15T02:21:32;11.30;99.90
40670;DHT22;26355;45.528;9.234;2022-11-15T02:24:25;11.30;99.90
40670;DHT22;26355;45.528;9.234;2022-11-15T02:32:48;11.20;99.90
40670;DHT22;26355;45.528;9.234;2022-11-15T02:38:14;11.10;99.90
40670;DHT22;26355;45.528;9.234;2022-11-15T02:40:45;11.10;99.90
40670;DHT22;26355;45.528;9.234;2022-11-15T02:43:22;11.10;99.90
40670;DHT22;26355;45.528;9.234;2022-11-15T02:49:13;11.10;99.90
40670;DHT22;26355;45.528;9.234;2022-11-15T02:51:40;11.10;99.90
40670;DHT22;26355;45.528;9.234;2022-11-15T02:54:12;11.10;99.90
40670;DHT22;26355;45.528;9.234;2022-11-15T02:56:39;11.10;99.90
40670;DHT22;26355;45.528;9.234;2022-11-15T03:10:11;11.10;99.90
40670;DHT22;26355;45.528;9.234;2022-11-15T03:12:50;11.10;99.90
40670;DHT22;26355;45.528;9.234;2022-11-15T03:15:24;11.10;99.90
40670;DHT22;26355;45.528;9.234;2022-11-15T03:17:59;11.00;99.90
40670;DHT22;26355;45.528;9.234;2022-11-15T03:20:27;11.00;99.90
40670;DHT22;26355;45.528;9.234;2022-11-15T03:22:56;11.10;99.90
40670;DHT22;26355;45.528;9.234;2022-11-15T03:25:26;11.10;99.90
40670;DHT22;26355;45.528;9.234;2022-11-15T03:27:55;11.10;99.90
40670;DHT22;26355;45.528;9.234;2022-11-15T03:30:22;11.10;99.90
40670;DHT22;26355;45.528;9.234;2022-11-15T03:32:56;11.20;99.90
40670;DHT22;26355;45.528;9.234;2022-11-15T03:35:29;11.20;99.90
40670;DHT22;26355;45.528;9.234;2022-11-15T03:38:02;11.10;99.90
40670;DHT22;26355;45.528;9.234;2022-11-15T03:40:50;11.30;99.90
40670;DHT22;26355;45.528;9.234;2022-11-15T03:43:52;11.40;99.90
40670;DHT22;26355;45.528;9.234;2022-11-15T03:46:28;11.30;99.90
40670;DHT22;26355;45.528;9.234;2022-11-15T03:49:10;11.30;99.90
40670;DHT22;26355;45.528;9.234;2022-11-15T03:51:37;11.30;99.90
40670;DHT22;26355;45.528;9.234;2022-11-15T03:54:05;11.30;99.90
40670;DHT22;26355;45.528;9.234;2022-11-15T03:56:34;11.30;99.90
40670;DHT22;26355;45.528;9.234;2022-11-15T03:59:00;11.10;99.90
40670;DHT22;26355;45.528;9.234;2022-11-15T04:01:25;11.20;99.90
40670;DHT22;26355;45.528;9.234;2022-11-15T04:03:51;11.20;99.90
40670;DHT22;26355;45.528;9.234;2022-11-15T04:06:17;11.10;99.90
40670;DHT22;26355;45.528;9.234;2022-11-15T04:08:42;11.10;99.90
40670;DHT22;26355;45.528;9.234;2022-11-15T04:11:08;11.20;99.90
40670;DHT22;26355;45.528;9.234;2022-11-15T04:13:34;11.10;99.90
40670;DHT22;26355;45.528;9.234;2022-11-15T04:15:59;11.10;99.90
40670;DHT22;26355;45.528;9.234;2022-11-15T04:18:25;11.20;99.90
40670;DHT22;26355;45.528;9.234;2022-11-15T04:20:51;11.10;99.90
40670;DHT22;26355;45.528;9.234;2022-11-15T04:23:35;11.20;99.90
40670;DHT22;26355;45.528;9.234;2022-11-15T04:26:21;11.10;99.90
40670;DHT22;26355;45.528;9.234;2022-11-15T04:28:47;11.00;99.90
40670;DHT22;26355;45.528;9.234;2022-11-15T04:31:31;11.00;99.90
40670;DHT22;26355;45.528;9.234;2022-11-15T04:33:57;11.10;99.90
40670;DHT22;26355;45.528;9.234;2022-11-15T04:36:23;11.00;99.90
40670;DHT22;26355;45.528;9.234;2022-11-15T04:39:08;11.00;99.90
40670;DHT22;26355;45.528;9.234;2022-11-15T04:41:33;11.00;99.90
40670;DHT22;26355;45.528;9.234;2022-11-15T04:43:59;11.10;99.90
40670;DHT22;26355;45.528;9.234;2022-11-15T04:46:25;11.10;99.90
40670;DHT22;26355;45.528;9.234;2022-11-15T04:48:52;11.20;99.90
40670;DHT22;26355;45.528;9.234;2022-11-15T04:51:18;11.10;99.90
40670;DHT22;26355;45.528;9.234;2022-11-15T04:53:44;11.20;99.90
40670;DHT22;26355;45.528;9.234;2022-11-15T04:56:10;11.20;99.90
40670;DHT22;26355;45.528;9.234;2022-11-15T04:58:36;11.30;99.90
40670;DHT22;26355;45.528;9.234;2022-11-15T05:01:12;11.30;99.90
40670;DHT22;26355;45.528;9.234;2022-11-15T05:03:43;11.30;99.90
40670;DHT22;26355;45.528;9.234;2022-11-15T05:06:27;11.20;99.90
40670;DHT22;26355;45.528;9.234;2022-11-15T05:08:53;11.30;99.90
40670;DHT22;26355;45.528;9.234;2022-11-15T05:11:19;11.40;99.90
40670;DHT22;26355;45.528;9.234;2022-11-15T05:13:46;11.30;99.90
40670;DHT22;26355;45.528;9.234;2022-11-15T05:16:11;11.60;99.90
40670;DHT22;26355;45.528;9.234;2022-11-15T05:18:37;11.30;99.90
40670;DHT22;26355;45.528;9.234;2022-11-15T05:21:07;11.40;99.90
40670;DHT22;26355;45.528;9.234;2022-11-15T05:23:33;11.40;99.90
40670;DHT22;26355;45.528;9.234;2022-11-15T05:26:04;11.40;99.90
40670;DHT22;26355;45.528;9.234;2022-11-15T05:28:31;11.40;99.90
40670;DHT22;26355;45.528;9.234;2022-11-15T05:31:08;11.50;99.90
40670;DHT22;26355;45.528;9.234;2022-11-15T05:33:35;11.50;99.90
40670;DHT22;26355;45.528;9.234;2022-11-15T05:36:29;11.50;99.90
40670;DHT22;26355;45.528;9.234;2022-11-15T05:38:57;11.50;99.90
40670;DHT22;26355;45.528;9.234;2022-11-15T05:41:30;11.50;99.90
40670;DHT22;26355;45.528;9.234;2022-11-15T05:43:58;11.70;99.90
40670;DHT22;26355;45.528;9.234;2022-11-15T05:46:25;11.80;99.90
40670;DHT22;26355;45.528;9.234;2022-11-15T05:48:52;11.90;99.90
40670;DHT22;26355;45.528;9.234;2022-11-15T05:51:18;11.90;99.90
40670;DHT22;26355;45.528;9.234;2022-11-15T05:53:46;11.90;99.90
40670;DHT22;26355;45.528;9.234;2022-11-15T05:56:12;12.00;99.90
40670;DHT22;26355;45.528;9.234;2022-11-15T05:58:39;11.80;99.90
40670;DHT22;26355;45.528;9.234;2022-11-15T06:01:05;11.80;99.90
40670;DHT22;26355;45.528;9.234;2022-11-15T06:03:31;11.50;99.90
40670;DHT22;26355;45.528;9.234;2022-11-15T06:05:57;11.60;99.90
40670;DHT22;26355;45.528;9.234;2022-11-15T06:08:22;11.70;99.90
40670;DHT22;26355;45.528;9.234;2022-11-15T06:10:48;11.80;99.90
40670;DHT22;26355;45.528;9.234;2022-11-15T06:13:14;11.70;99.90
40670;DHT22;26355;45.528;9.234;2022-11-15T06:15:40;11.50;99.90
40670;DHT22;26355;45.528;9.234;2022-11-15T06:18:06;11.20;99.90
40670;DHT22;26355;45.528;9.234;2022-11-15T06:20:31;10.80;99.90
40670;DHT22;26355;45.528;9.234;2022-11-15T06:22:58;10.90;99.90
40670;DHT22;26355;45.528;9.234;2022-11-15T06:25:24;10.70;99.90
40670;DHT22;26355;45.528;9.234;2022-11-15T06:27:53;10.80;99.90
40670;DHT22;26355;45.528;9.234;2022-11-15T06:30:20;10.80;99.90
40670;DHT22;26355;45.528;9.234;2022-11-15T06:32:46;10.50;99.90
40670;DHT22;26355;45.528;9.234;2022-11-15T06:35:12;10.50;99.90
40670;DHT22;26355;45.528;9.234;2022-11-15T06:37:39;10.70;99.90
40670;DHT22;26355;45.528;9.234;2022-11-15T06:40:05;10.90;99.90
40670;DHT22;26355;45.528;9.234;2022-11-15T06:42:31;11.00;99.90
40670;DHT22;26355;45.528;9.234;2022-11-15T06:44:57;10.00;99.90
40670;DHT22;26355;45.528;9.234;2022-11-15T06:47:23;10.90;99.90
40670;DHT22;26355;45.528;9.234;2022-11-15T06:49:49;10.80;99.90
40670;DHT22;26355;45.528;9.234;2022-11-15T06:52:14;10.80;99.90
40670;DHT22;26355;45.528;9.234;2022-11-15T06:54:40;10.80;99.90
40670;DHT22;26355;45.528;9.234;2022-11-15T06:57:06;11.00;99.90
40670;DHT22;26355;45.528;9.234;2022-11-15T06:59:32;11.00;99.90
40670;DHT22;26355;45.528;9.234;2022-11-15T07:01:57;11.20;99.90
40670;DHT22;26355;45.528;9.234;2022-11-15T07:04:23;11.20;99.90
40670;DHT22;26355;45.528;9.234;2022-11-15T07:06:49;11.30;99.90
40670;DHT22;26355;45.528;9.234;2022-11-15T07:09:14;11.30;99.90
40670;DHT22;26355;45.528;9.234;2022-11-15T07:11:40;11.20;99.90
40670;DHT22;26355;45.528;9.234;2022-11-15T07:14:06;11.20;99.90
40670;DHT22;26355;45.528;9.234;2022-11-15T07:16:32;11.30;99.90
40670;DHT22;26355;45.528;9.234;2022-11-15T07:18:57;11.40;99.90
40670;DHT22;26355;45.528;9.234;2022-11-15T07:21:23;11.40;99.90
40670;DHT22;26355;45.528;9.234;2022-11-15T07:23:49;11.40;99.90
40670;DHT22;26355;45.528;9.234;2022-11-15T07:26:15;11.60;99.90
40670;DHT22;26355;45.528;9.234;2022-11-15T07:28:40;11.60;99.90
40670;DHT22;26355;45.528;9.234;2022-11-15T07:31:08;11.80;99.90
40670;DHT22;26355;45.528;9.234;2022-11-15T07:33:34;11.80;99.90
40670;DHT22;26355;45.528;9.234;2022-11-15T07:36:01;11.90;99.90
40670;DHT22;26355;45.528;9.234;2022-11-15T07:38:28;11.90;99.90
40670;DHT22;26355;45.528;9.234;2022-11-15T07:41:01;11.90;99.90
40670;DHT22;26355;45.528;9.234;2022-11-15T07:43:27;12.10;99.90
40670;DHT22;26355;45.528;9.234;2022-11-15T07:45:53;12.10;99.90
40670;DHT22;26355;45.528;9.234;2022-11-15T07:48:19;12.10;99.90
40670;DHT22;26355;45.528;9.234;2022-11-15T07:50:45;12.20;99.90
40670;DHT22;26355;45.528;9.234;2022-11-15T07:53:11;12.20;99.90
40670;DHT22;26355;45.528;9.234;2022-11-15T07:55:39;12.10;99.90
40670;DHT22;26355;45.528;9.234;2022-11-15T07:58:05;12.10;99.90
40670;DHT22;26355;45.528;9.234;2022-11-15T08:00:32;12.10;99.90
40670;DHT22;26355;45.528;9.234;2022-11-15T08:05:28;12.20;99.90
40670;DHT22;26355;45.528;9.234;2022-11-15T08:07:56;12.30;99.90
40670;DHT22;26355;45.528;9.234;2022-11-15T08:10:21;12.40;99.90
40670;DHT22;26355;45.528;9.234;2022-11-15T08:12:47;12.20;99.90
40670;DHT22;26355;45.528;9.234;2022-11-15T08:15:13;12.30;99.90
40670;DHT22;26355;45.528;9.234;2022-11-15T08:17:38;12.40;99.90
40670;DHT22;26355;45.528;9.234;2022-11-15T08:20:04;12.40;99.90
40670;DHT22;26355;45.528;9.234;2022-11-15T08:22:30;12.40;99.90
40670;DHT22;26355;45.528;9.234;2022-11-15T08:24:56;12.60;99.90
40670;DHT22;26355;45.528;9.234;2022-11-15T08:27:21;12.50;99.90
40670;DHT22;26355;45.528;9.234;2022-11-15T08:29:49;12.50;99.90
40670;DHT22;26355;45.528;9.234;2022-11-15T08:32:15;12.40;99.90
40670;DHT22;26355;45.528;9.234;2022-11-15T08:34:40;12.60;99.90
40670;DHT22;26355;45.528;9.234;2022-11-15T08:37:06;12.60;99.90
40670;DHT22;26355;45.528;9.234;2022-11-15T08:39:32;12.70;99.90
40670;DHT22;26355;45.528;9.234;2022-11-15T08:41:58;12.70;99.90
40670;DHT22;26355;45.528;9.234;2022-11-15T08:44:24;12.70;99.90
40670;DHT22;26355;45.528;9.234;2022-11-15T08:46:49;12.80;99.90
40670;DHT22;26355;45.528;9.234;2022-11-15T08:49:16;12.50;99.90
40670;DHT22;26355;45.528;9.234;2022-11-15T08:51:44;12.80;99.90
40670;DHT22;26355;45.528;9.234;2022-11-15T08:54:10;12.80;99.90
40670;DHT22;26355;45.528;9.234;2022-11-15T08:56:36;12.80;99.90
40670;DHT22;26355;45.528;9.234;2022-11-15T08:59:01;12.60;99.90
40670;DHT22;26355;45.528;9.234;2022-11-15T09:01:27;12.60;99.90
40670;DHT22;26355;45.528;9.234;2022-11-15T09:03:53;12.80;99.90
40670;DHT22;26355;45.528;9.234;2022-11-15T09:06:19;12.80;99.90
40670;DHT22;26355;45.528;9.234;2022-11-15T09:08:44;12.80;99.90
40670;DHT22;26355;45.528;9.234;2022-11-15T09:11:10;12.70;99.90
40670;DHT22;26355;45.528;9.234;2022-11-15T09:13:36;12.70;99.90
40670;DHT22;26355;45.528;9.234;2022-11-15T09:16:03;12.50;99.90
40670;DHT22;26355;45.528;9.234;2022-11-15T09:18:29;12.40;99.90
40670;DHT22;26355;45.528;9.234;2022-11-15T09:20:57;12.30;99.90
40670;DHT22;26355;45.528;9.234;2022-11-15T09:23:23;12.20;99.90
40670;DHT22;26355;45.528;9.234;2022-11-15T09:25:49;12.20;99.90
40670;DHT22;26355;45.528;9.234;2022-11-15T09:28:14;12.00;99.90
40670;DHT22;26355;45.528;9.234;2022-11-15T09:30:40;12.00;99.90
40670;DHT22;26355;45.528;9.234;2022-11-15T09:33:08;12.10;99.90
40670;DHT22;26355;45.528;9.234;2022-11-15T09:35:34;12.00;99.90
40670;DHT22;26355;45.528;9.234;2022-11-15T09:38:00;12.00;99.90
40670;DHT22;26355;45.528;9.234;2022-11-15T09:40:25;12.00;99.90
40670;DHT22;26355;45.528;9.234;2022-11-15T09:45:36;12.10;99.90
40670;DHT22;26355;45.528;9.234;2022-11-15T09:50:56;12.10;99.90
40670;DHT22;26355;45.528;9.234;2022-11-15T09:53:32;12.10;99.90
40670;DHT22;26355;45.528;9.234;2022-11-15T09:56:10;12.30;99.90
40670;DHT22;26355;45.528;9.234;2022-11-15T10:04:03;12.50;99.90
40670;DHT22;26355;45.528;9.234;2022-11-15T10:06:30;12.40;99.90
40670;DHT22;26355;45.528;9.234;2022-11-15T10:11:54;12.50;99.90
40670;DHT22;26355;45.528;9.234;2022-11-15T10:14:24;12.50;99.90
40670;DHT22;26355;45.528;9.234;2022-11-15T10:16:58;12.60;99.90
40670;DHT22;26355;45.528;9.234;2022-11-15T10:24:51;12.60;99.90
40670;DHT22;26355;45.528;9.234;2022-11-15T10:27:18;12.80;99.90
40670;DHT22;26355;45.528;9.234;2022-11-15T10:29:49;12.70;99.90
40670;DHT22;26355;45.528;9.234;2022-11-15T10:32:18;12.80;99.90
40670;DHT22;26355;45.528;9.234;2022-11-15T10:34:44;12.90;99.90
40670;DHT22;26355;45.528;9.234;2022-11-15T10:37:10;12.90;99.90
40670;DHT22;26355;45.528;9.234;2022-11-15T10:39:36;12.90;99.90
40670;DHT22;26355;45.528;9.234;2022-11-15T10:42:27;13.00;99.90
40670;DHT22;26355;45.528;9.234;2022-11-15T10:44:53;12.90;99.90
40670;DHT22;26355;45.528;9.234;2022-11-15T10:47:25;13.10;99.90
40670;DHT22;26355;45.528;9.234;2022-11-15T10:50:00;13.00;99.90
40670;DHT22;26355;45.528;9.234;2022-11-15T10:52:27;13.00;99.90
40670;DHT22;26355;45.528;9.234;2022-11-15T10:54:57;13.00;99.90
40670;DHT22;26355;45.528;9.234;2022-11-15T10:57:29;12.80;99.90
40670;DHT22;26355;45.528;9.234;2022-11-15T11:02:37;12.90;99.90
40670;DHT22;26355;45.528;9.234;2022-11-15T11:05:28;12.90;99.90
40670;DHT22;26355;45.528;9.234;2022-11-15T11:08:04;12.90;99.90
40670;DHT22;26355;45.528;9.234;2022-11-15T11:10:31;12.90;99.90
40670;DHT22;26355;45.528;9.234;2022-11-15T11:21:51;12.80;99.90
40670;DHT22;26355;45.528;9.234;2022-11-15T11:27:15;12.80;99.90
40670;DHT22;26355;45.528;9.234;2022-11-15T11:38:09;12.70;99.90
40670;DHT22;26355;45.528;9.234;2022-11-15T11:40:44;12.70;99.90
40670;DHT22;26355;45.528;9.234;2022-11-15T11:43:45;13.00;99.90
40670;DHT22;26355;45.528;9.234;2022-11-15T11:48:47;12.60;99.90
40670;DHT22;26355;45.528;9.234;2022-11-15T11:53:54;12.70;99.90
40670;DHT22;26355;45.528;9.234;2022-11-15T11:56:32;12.70;99.90
40670;DHT22;26355;45.528;9.234;2022-11-15T12:01:48;12.70;99.90
40670;DHT22;26355;45.528;9.234;2022-11-15T12:04:30;12.60;99.90
40670;DHT22;26355;45.528;9.234;2022-11-15T12:07:19;12.60;99.90
40670;DHT22;26355;45.528;9.234;2022-11-15T12:12:44;12.70;99.90
40670;DHT22;26355;45.528;9.234;2022-11-15T12:15:17;12.80;99.90
40670;DHT22;26355;45.528;9.234;2022-11-15T12:17:45;12.80;99.90
40670;DHT22;26355;45.528;9.234;2022-11-15T12:20:26;12.90;99.90
40670;DHT22;26355;45.528;9.234;2022-11-15T12:23:03;13.00;99.90
40670;DHT22;26355;45.528;9.234;2022-11-15T12:28:28;13.20;99.90
40670;DHT22;26355;45.528;9.234;2022-11-15T12:33:46;13.30;99.90
40670;DHT22;26355;45.528;9.234;2022-11-15T12:41:37;13.50;99.90
40670;DHT22;26355;45.528;9.234;2022-11-15T12:44:04;13.40;99.90
40670;DHT22;26355;45.528;9.234;2022-11-15T12:59:55;13.30;99.90
40670;DHT22;26355;45.528;9.234;2022-11-15T13:02:37;13.20;99.90
40670;DHT22;26355;45.528;9.234;2022-11-15T13:07:57;13.20;99.90
40670;DHT22;26355;45.528;9.234;2022-11-15T13:20:18;13.00;99.90
40670;DHT22;26355;45.528;9.234;2022-11-15T13:25:32;13.20;99.90
40670;DHT22;26355;45.528;9.234;2022-11-15T13:30:53;13.10;99.90
40670;DHT22;26355;45.528;9.234;2022-11-15T13:35:54;12.90;99.90
40670;DHT22;26355;45.528;9.234;2022-11-15T13:38:29;13.00;99.90
40670;DHT22;26355;45.528;9.234;2022-11-15T13:40:57;13.30;99.90
40670;DHT22;26355;45.528;9.234;2022-11-15T13:46:27;12.90;99.90
40670;DHT22;26355;45.528;9.234;2022-11-15T13:49:01;12.90;99.90
40670;DHT22;26355;45.528;9.234;2022-11-15T13:51:47;12.80;99.90
40670;DHT22;26355;45.528;9.234;2022-11-15T13:57:02;12.80;99.90
40670;DHT22;26355;45.528;9.234;2022-11-15T13:59:29;12.60;99.90
40670;DHT22;26355;45.528;9.234;2022-11-15T14:01:58;12.60;99.90
40670;DHT22;26355;45.528;9.234;2022-11-15T14:04:27;12.60;99.90
40670;DHT22;26355;45.528;9.234;2022-11-15T14:06:58;12.60;99.90
40670;DHT22;26355;45.528;9.234;2022-11-15T14:12:19;12.60;99.90
40670;DHT22;26355;45.528;9.234;2022-11-15T14:14:47;12.60;99.90
40670;DHT22;26355;45.528;9.234;2022-11-15T14:17:20;12.70;99.90
40670;DHT22;26355;45.528;9.234;2022-11-15T14:19:46;12.60;99.90
40670;DHT22;26355;45.528;9.234;2022-11-15T14:24:46;12.50;99.90
40670;DHT22;26355;45.528;9.234;2022-11-15T14:27:26;12.40;99.90
40670;DHT22;26355;45.528;9.234;2022-11-15T14:29:52;12.30;99.90
40670;DHT22;26355;45.528;9.234;2022-11-15T14:34:53;12.30;99.90
40670;DHT22;26355;45.528;9.234;2022-11-15T14:37:25;12.30;99.90
40670;DHT22;26355;45.528;9.234;2022-11-15T14:39:52;12.30;99.90
40670;DHT22;26355;45.528;9.234;2022-11-15T14:42:19;12.30;99.90
40670;DHT22;26355;45.528;9.234;2022-11-15T14:44:45;12.30;99.90
40670;DHT22;26355;45.528;9.234;2022-11-15T14:47:11;12.30;99.90
40670;DHT22;26355;45.528;9.234;2022-11-15T14:49:36;12.30;99.90
40670;DHT22;26355;45.528;9.234;2022-11-15T14:52:02;12.40;99.90
40670;DHT22;26355;45.528;9.234;2022-11-15T14:54:29;12.30;99.90
40670;DHT22;26355;45.528;9.234;2022-11-15T14:56:55;12.40;99.90
40670;DHT22;26355;45.528;9.234;2022-11-15T14:59:21;12.40;99.90
40670;DHT22;26355;45.528;9.234;2022-11-15T15:01:46;12.50;99.90
40670;DHT22;26355;45.528;9.234;2022-11-15T15:04:12;12.30;99.90
40670;DHT22;26355;45.528;9.234;2022-11-15T15:06:37;12.30;99.90
40670;DHT22;26355;45.528;9.234;2022-11-15T15:09:04;12.20;99.90
40670;DHT22;26355;45.528;9.234;2022-11-15T15:11:31;12.20;99.90
40670;DHT22;26355;45.528;9.234;2022-11-15T15:13:57;12.30;99.90
40670;DHT22;26355;45.528;9.234;2022-11-15T15:16:26;12.20;99.90
40670;DHT22;26355;45.528;9.234;2022-11-15T15:18:52;12.30;99.90
40670;DHT22;26355;45.528;9.234;2022-11-15T15:21:27;12.30;99.90
40670;DHT22;26355;45.528;9.234;2022-11-15T15:23:54;12.30;99.90
40670;DHT22;26355;45.528;9.234;2022-11-15T15:26:20;12.40;99.90
40670;DHT22;26355;45.528;9.234;2022-11-15T15:28:45;12.40;99.90
40670;DHT22;26355;45.528;9.234;2022-11-15T15:31:13;12.30;99.90
40670;DHT22;26355;45.528;9.234;2022-11-15T15:33:39;12.30;99.90
40670;DHT22;26355;45.528;9.234;2022-11-15T15:36:12;12.30;99.90
40670;DHT22;26355;45.528;9.234;2022-11-15T15:38:39;12.30;99.90
40670;DHT22;26355;45.528;9.234;2022-11-15T15:41:11;12.30;99.90
40670;DHT22;26355;45.528;9.234;2022-11-15T15:43:38;12.30;99.90
40670;DHT22;26355;45.528;9.234;2022-11-15T15:46:07;12.30;99.90
40670;DHT22;26355;45.528;9.234;2022-11-15T15:48:33;12.30;99.90
40670;DHT22;26355;45.528;9.234;2022-11-15T15:51:02;12.30;99.90
40670;DHT22;26355;45.528;9.234;2022-11-15T15:53:28;12.30;99.90
40670;DHT22;26355;45.528;9.234;2022-11-15T15:55:54;12.20;99.90
40670;DHT22;26355;45.528;9.234;2022-11-15T15:58:20;12.20;99.90
40670;DHT22;26355;45.528;9.234;2022-11-15T16:00:47;12.40;99.90
40670;DHT22;26355;45.528;9.234;2022-11-15T16:03:13;12.30;99.90
40670;DHT22;26355;45.528;9.234;2022-11-15T16:05:39;12.30;99.90
40670;DHT22;26355;45.528;9.234;2022-11-15T16:08:05;12.40;99.90
40670;DHT22;26355;45.528;9.234;2022-11-15T16:10:33;12.30;99.90
40670;DHT22;26355;45.528;9.234;2022-11-15T16:13:00;12.30;99.90
40670;DHT22;26355;45.528;9.234;2022-11-15T16:15:29;12.30;99.90
40670;DHT22;26355;45.528;9.234;2022-11-15T16:18:00;12.30;99.90
40670;DHT22;26355;45.528;9.234;2022-11-15T16:22:59;12.40;99.90
40670;DHT22;26355;45.528;9.234;2022-11-15T16:25:25;12.30;99.90
40670;DHT22;26355;45.528;9.234;2022-11-15T16:27:51;12.30;99.90
40670;DHT22;26355;45.528;9.234;2022-11-15T16:30:20;12.30;99.90
40670;DHT22;26355;45.528;9.234;2022-11-15T16:32:46;12.20;99.90
40670;DHT22;26355;45.528;9.234;2022-11-15T16:35:14;12.30;99.90
40670;DHT22;26355;45.528;9.234;2022-11-15T16:37:40;12.30;99.90
40670;DHT22;26355;45.528;9.234;2022-11-15T16:40:26;12.20;99.90
40670;DHT22;26355;45.528;9.234;2022-11-15T16:42:53;12.10;99.90
40670;DHT22;26355;45.528;9.234;2022-11-15T16:45:21;12.10;99.90
40670;DHT22;26355;45.528;9.234;2022-11-15T16:47:46;12.20;99.90
40670;DHT22;26355;45.528;9.234;2022-11-15T16:52:53;12.10;99.90
40670;DHT22;26355;45.528;9.234;2022-11-15T16:55:20;12.20;99.90
40670;DHT22;26355;45.528;9.234;2022-11-15T16:57:45;12.20;99.90
40670;DHT22;26355;45.528;9.234;2022-11-15T17:00:12;12.30;99.90
40670;DHT22;26355;45.528;9.234;2022-11-15T17:02:47;12.40;99.90
40670;DHT22;26355;45.528;9.234;2022-11-15T17:05:14;12.40;99.90
40670;DHT22;26355;45.528;9.234;2022-11-15T17:07:40;12.40;99.90
40670;DHT22;26355;45.528;9.234;2022-11-15T17:10:08;12.40;99.90
40670;DHT22;26355;45.528;9.234;2022-11-15T17:12:35;12.60;99.90
40670;DHT22;26355;45.528;9.234;2022-11-15T17:15:02;12.80;99.90
40670;DHT22;26355;45.528;9.234;2022-11-15T17:17:29;12.80;99.90
40670;DHT22;26355;45.528;9.234;2022-11-15T17:19:55;12.80;99.90
40670;DHT22;26355;45.528;9.234;2022-11-15T17:22:21;12.90;99.90
40670;DHT22;26355;45.528;9.234;2022-11-15T17:24:49;12.70;99.90
40670;DHT22;26355;45.528;9.234;2022-11-15T17:27:18;12.60;99.90
40670;DHT22;26355;45.528;9.234;2022-11-15T17:29:47;12.50;99.90
40670;DHT22;26355;45.528;9.234;2022-11-15T17:32:13;12.50;99.90
40670;DHT22;26355;45.528;9.234;2022-11-15T17:34:39;12.50;99.90
40670;DHT22;26355;45.528;9.234;2022-11-15T17:37:04;12.50;99.90
40670;DHT22;26355;45.528;9.234;2022-11-15T17:39:30;12.50;99.90
40670;DHT22;26355;45.528;9.234;2022-11-15T17:41:56;12.60;99.90
40670;DHT22;26355;45.528;9.234;2022-11-15T17:44:22;12.50;99.90
40670;DHT22;26355;45.528;9.234;2022-11-15T17:46:48;12.50;99.90
40670;DHT22;26355;45.528;9.234;2022-11-15T17:49:14;12.50;99.90
40670;DHT22;26355;45.528;9.234;2022-11-15T17:51:40;12.50;99.90
40670;DHT22;26355;45.528;9.234;2022-11-15T17:54:07;12.50;99.90
40670;DHT22;26355;45.528;9.234;2022-11-15T17:56:38;12.50;99.90
40670;DHT22;26355;45.528;9.234;2022-11-15T17:59:05;12.50;99.90
40670;DHT22;26355;45.528;9.234;2022-11-15T18:01:33;12.50;99.90
40670;DHT22;26355;45.528;9.234;2022-11-15T18:04:00;12.50;99.90
40670;DHT22;26355;45.528;9.234;2022-11-15T18:06:28;12.40;99.90